Time;durP1;ratioP1;P1;durP2;ratioP2;P2;SDS_P1;SDS_P2;PMS_P1;PMS_P2;Temp;Humidity;BMP_temperature;BMP_pressure;BME280_temperature;BME280_humidity;BME280_pressure;Samples;Min_cycle;Max_cycle;Signal;HPM_P1;HPM_P2
2024/03/10 00:01:58;;;;;;;24.10;14.05;;;8.70;99.90;;;;;;4975756;28;20042;-83
2024/03/10 00:04:24;;;;;;;24.67;14.35;;;8.80;99.90;;;;;;4964701;28;20022;-83
2024/03/10 00:06:50;;;;;;;26.05;15.85;;;8.80;99.90;;;;;;4969711;28;20051;-83
2024/03/10 00:09:16;;;;;;;26.95;14.95;;;8.70;99.90;;;;;;4986090;28;20124;-83
2024/03/10 00:11:43;;;;;;;24.88;14.60;;;8.70;99.90;;;;;;4969393;28;20055;-83
2024/03/10 00:14:09;;;;;;;22.10;14.10;;;8.70;99.90;;;;;;4963967;28;20029;-83
2024/03/10 00:16:35;;;;;;;23.73;13.38;;;8.70;99.90;;;;;;4977856;28;20031;-83
2024/03/10 00:19:02;;;;;;;34.08;16.67;;;8.60;99.90;;;;;;4978076;28;20094;-82
2024/03/10 00:21:28;;;;;;;25.02;13.32;;;8.60;99.90;;;;;;4978561;28;20053;-83
2024/03/10 00:23:54;;;;;;;24.90;14.18;;;8.60;99.90;;;;;;4961088;28;20074;-83
2024/03/10 00:26:20;;;;;;;23.70;14.02;;;8.60;99.90;;;;;;4965979;28;20030;-83
2024/03/10 00:28:48;;;;;;;25.00;14.20;;;8.60;99.90;;;;;;4995850;28;20097;-82
2024/03/10 00:31:14;;;;;;;25.08;15.10;;;8.60;99.90;;;;;;4974502;28;20023;-83
2024/03/10 00:33:39;;;;;;;28.83;15.65;;;8.50;99.90;;;;;;4974294;28;20058;-83
2024/03/10 00:36:05;;;;;;;25.80;15.40;;;8.50;99.90;;;;;;4959781;28;20051;-83
2024/03/10 00:38:31;;;;;;;26.23;15.57;;;8.50;99.90;;;;;;4969690;28;20474;-83
2024/03/10 00:40:57;;;;;;;24.08;14.35;;;8.40;99.90;;;;;;4971416;28;20047;-83
2024/03/10 00:43:23;;;;;;;27.33;15.88;;;8.50;99.90;;;;;;4994358;28;20071;-83
2024/03/10 00:45:52;;;;;;;26.58;15.38;;;8.40;99.90;;;;;;4971826;28;20441;-83
2024/03/10 00:48:18;;;;;;;24.35;13.90;;;8.40;99.90;;;;;;4967851;28;20066;-83
2024/03/10 00:50:46;;;;;;;24.42;14.00;;;8.40;99.90;;;;;;4970055;28;20026;-83
2024/03/10 00:53:12;;;;;;;27.17;15.20;;;8.30;99.90;;;;;;4969285;28;20426;-83
2024/03/10 00:55:38;;;;;;;27.83;15.65;;;8.40;99.90;;;;;;4963091;28;20027;-83
2024/03/10 00:58:04;;;;;;;24.17;15.68;;;8.30;99.90;;;;;;4976179;28;20049;-83
2024/03/10 01:00:32;;;;;;;26.20;15.40;;;8.30;99.90;;;;;;4967373;28;20051;-83
2024/03/10 01:02:58;;;;;;;23.65;14.90;;;8.20;99.90;;;;;;4963786;28;20076;-83
2024/03/10 01:05:24;;;;;;;24.38;15.07;;;8.20;99.90;;;;;;4976904;28;20109;-83
2024/03/10 01:07:50;;;;;;;25.25;15.25;;;8.20;99.90;;;;;;4977353;28;20039;-83
2024/03/10 01:10:15;;;;;;;27.50;15.77;;;8.20;99.90;;;;;;4976550;28;20033;-84
2024/03/10 01:12:41;;;;;;;26.05;16.85;;;8.20;99.90;;;;;;4977685;28;20065;-83
2024/03/10 01:15:07;;;;;;;24.02;15.43;;;8.10;99.90;;;;;;4977259;28;20113;-83
2024/03/10 01:17:33;;;;;;;29.52;17.35;;;8.10;99.90;;;;;;4976324;28;20034;-83
2024/03/10 01:20:00;;;;;;;26.58;15.70;;;8.10;99.90;;;;;;4977496;28;20026;-83
2024/03/10 01:22:26;;;;;;;27.52;16.85;;;8.10;99.90;;;;;;4995005;28;20485;-82
2024/03/10 01:24:51;;;;;;;29.55;16.67;;;8.00;99.90;;;;;;4977285;28;20018;-83
2024/03/10 01:27:17;;;;;;;29.50;17.42;;;8.10;99.90;;;;;;4976529;28;20502;-82
2024/03/10 01:29:44;;;;;;;28.48;17.40;;;8.00;99.90;;;;;;4976736;28;20022;-82
2024/03/10 01:32:09;;;;;;;27.70;16.23;;;8.00;99.90;;;;;;4967259;28;20077;-83
2024/03/10 01:34:36;;;;;;;27.65;16.63;;;8.00;99.90;;;;;;4970512;28;20026;-83
2024/03/10 01:37:02;;;;;;;27.58;16.85;;;8.00;99.90;;;;;;4967889;28;20082;-83
2024/03/10 01:39:27;;;;;;;26.88;16.65;;;8.00;99.90;;;;;;4970019;28;20482;-82
2024/03/10 01:41:54;;;;;;;28.85;17.05;;;8.00;99.90;;;;;;4976351;28;20065;-83
2024/03/10 01:44:20;;;;;;;28.05;17.35;;;8.00;99.90;;;;;;4975252;28;20382;-83
2024/03/10 01:46:47;;;;;;;27.17;17.17;;;7.90;99.90;;;;;;4978726;28;20030;-83
2024/03/10 01:49:13;;;;;;;27.83;16.67;;;8.00;99.90;;;;;;4976376;28;20117;-83
2024/03/10 01:51:41;;;;;;;28.83;17.33;;;8.00;99.90;;;;;;4976786;28;20026;-83
2024/03/10 01:54:10;;;;;;;31.42;17.70;;;8.00;99.90;;;;;;4975550;28;20162;-82
2024/03/10 01:56:36;;;;;;;31.60;17.40;;;8.00;99.90;;;;;;4984754;28;20073;-83
2024/03/10 01:59:02;;;;;;;29.45;16.95;;;8.00;99.90;;;;;;4963449;28;20411;-83
2024/03/10 02:01:28;;;;;;;28.88;17.52;;;8.00;99.90;;;;;;4973245;28;20495;-82
2024/03/10 02:03:54;;;;;;;28.90;17.23;;;8.00;99.90;;;;;;4997219;28;20487;-83
2024/03/10 02:06:21;;;;;;;31.73;18.58;;;7.90;99.90;;;;;;4973415;28;20775;-83
2024/03/10 02:08:47;;;;;;;31.50;18.75;;;7.90;99.90;;;;;;4973114;28;20027;-83
2024/03/10 02:11:13;;;;;;;29.92;17.98;;;8.00;99.90;;;;;;4970257;28;20034;-83
2024/03/10 02:13:40;;;;;;;29.65;16.88;;;8.00;99.90;;;;;;4962356;28;20027;-83
2024/03/10 02:16:07;;;;;;;30.38;17.58;;;7.90;99.90;;;;;;4972951;28;20114;-83
2024/03/10 02:18:33;;;;;;;29.27;17.63;;;7.90;99.90;;;;;;4968494;28;20494;-83
2024/03/10 02:21:00;;;;;;;27.67;16.85;;;7.90;99.90;;;;;;4960285;28;20077;-83
2024/03/10 02:23:57;;;;;;;30.90;17.70;;;7.90;99.90;;;;;;4971936;28;20546;-82
2024/03/10 02:26:28;;;;;;;29.38;17.33;;;7.80;99.90;;;;;;4972775;28;20019;-83
2024/03/10 02:29:14;;;;;;;29.15;17.73;;;7.80;99.90;;;;;;4971229;28;20045;-83
2024/03/10 02:48:24;;;;;;;30.10;18.23;;;7.60;99.90;;;;;;4970208;28;20390;-83
2024/03/10 02:50:50;;;;;;;29.65;18.67;;;7.60;99.90;;;;;;4968597;28;20121;-83
2024/03/10 02:53:15;;;;;;;30.33;18.15;;;7.60;99.90;;;;;;4965838;28;20024;-83
2024/03/10 02:55:41;;;;;;;32.20;19.40;;;7.60;99.90;;;;;;4964237;28;20035;-82
2024/03/10 02:58:07;;;;;;;30.40;18.92;;;7.60;99.90;;;;;;4960236;28;20125;-83
2024/03/10 03:00:34;;;;;;;31.50;19.25;;;7.50;99.90;;;;;;4971823;28;20039;-83
2024/03/10 03:03:01;;;;;;;32.13;19.02;;;7.50;99.90;;;;;;5000345;28;20462;-83
2024/03/10 03:05:26;;;;;;;27.48;17.30;;;7.50;99.90;;;;;;4972429;28;20447;-82
2024/03/10 03:07:53;;;;;;;43.92;20.15;;;7.40;99.90;;;;;;4971220;28;20058;-83
2024/03/10 03:10:19;;;;;;;31.10;18.88;;;7.40;99.90;;;;;;4971789;28;20023;-82
2024/03/10 03:12:44;;;;;;;34.17;20.08;;;7.40;99.90;;;;;;4969579;28;20031;-82
2024/03/10 03:15:10;;;;;;;33.88;20.15;;;7.30;99.90;;;;;;4972405;28;20034;-82
2024/03/10 03:17:36;;;;;;;33.78;20.02;;;7.30;99.90;;;;;;4966201;28;20027;-83
2024/03/10 03:20:13;;;;;;;31.30;18.30;;;7.30;99.90;;;;;;4959308;28;20471;-83
2024/03/10 03:22:41;;;;;;;34.10;20.20;;;7.20;99.90;;;;;;4962060;28;20031;-83
2024/03/10 03:25:07;;;;;;;33.67;19.63;;;7.20;99.90;;;;;;4972089;28;20038;-83
2024/03/10 03:27:35;;;;;;;30.73;18.50;;;7.20;99.90;;;;;;4988604;28;20034;-83
2024/03/10 03:30:06;;;;;;;30.23;18.48;;;7.10;99.90;;;;;;4970545;28;20026;-83
2024/03/10 03:32:32;;;;;;;33.42;19.58;;;7.10;99.90;;;;;;4969195;28;20027;-83
2024/03/10 03:34:58;;;;;;;29.98;18.58;;;7.10;99.90;;;;;;4961385;28;20505;-83
2024/03/10 03:37:24;;;;;;;29.40;17.98;;;7.00;99.90;;;;;;4969610;28;20062;-83
2024/03/10 03:39:50;;;;;;;33.58;20.73;;;7.00;99.90;;;;;;4966215;28;20368;-82
2024/03/10 03:42:16;;;;;;;32.65;19.35;;;7.00;99.90;;;;;;4971850;28;20034;-83
2024/03/10 03:44:44;;;;;;;33.88;20.65;;;6.90;99.90;;;;;;4972240;28;20599;-83
2024/03/10 03:47:10;;;;;;;32.33;19.42;;;6.90;99.90;;;;;;4997336;28;20034;-83
2024/03/10 03:49:36;;;;;;;35.42;20.35;;;6.90;99.90;;;;;;4970957;28;20030;-83
2024/03/10 03:52:01;;;;;;;36.33;21.60;;;6.90;99.90;;;;;;4970230;28;20114;-83
2024/03/10 03:54:31;;;;;;;33.55;19.60;;;6.90;99.90;;;;;;4967561;28;20122;-83
2024/03/10 03:56:58;;;;;;;35.03;19.67;;;6.90;99.90;;;;;;4970920;28;20127;-83
2024/03/10 03:59:24;;;;;;;31.88;18.88;;;6.80;99.90;;;;;;4981563;28;20046;-83
2024/03/10 04:01:53;;;;;;;34.47;20.20;;;6.80;99.90;;;;;;4987958;28;20210;-83
2024/03/10 04:04:19;;;;;;;34.72;19.92;;;6.80;99.90;;;;;;4974811;28;20023;-83
2024/03/10 04:06:45;;;;;;;35.53;20.75;;;6.80;99.90;;;;;;4967638;28;20086;-82
2024/03/10 04:09:11;;;;;;;35.05;20.17;;;6.80;99.90;;;;;;4977575;28;20464;-82
2024/03/10 04:11:39;;;;;;;34.15;20.20;;;6.80;99.90;;;;;;4974832;28;20492;-82
2024/03/10 04:14:07;;;;;;;32.42;19.25;;;6.80;99.90;;;;;;4969520;28;20030;-82
2024/03/10 04:16:33;;;;;;;35.00;20.38;;;6.80;99.90;;;;;;4978434;28;20029;-83
2024/03/10 04:18:59;;;;;;;34.22;20.42;;;6.80;99.90;;;;;;4975625;28;20026;-83
2024/03/10 04:21:24;;;;;;;35.05;20.85;;;6.70;99.90;;;;;;4974116;28;20042;-83
2024/03/10 04:23:51;;;;;;;34.08;20.08;;;6.70;99.90;;;;;;4977800;28;20541;-83
2024/03/10 04:26:18;;;;;;;36.38;20.70;;;6.80;99.90;;;;;;4995493;28;20023;-83
2024/03/10 04:28:44;;;;;;;36.72;19.38;;;6.70;99.90;;;;;;4978228;28;20034;-83
2024/03/10 04:31:09;;;;;;;35.05;20.35;;;6.80;99.90;;;;;;4977732;28;20034;-83
2024/03/10 04:33:35;;;;;;;35.72;20.92;;;6.80;99.90;;;;;;4966488;28;20027;-83
2024/03/10 04:36:01;;;;;;;32.92;20.33;;;6.70;99.90;;;;;;4977697;28;20022;-83
2024/03/10 04:38:26;;;;;;;33.33;20.20;;;6.80;99.90;;;;;;4966461;28;20054;-83
2024/03/10 04:40:52;;;;;;;34.63;20.92;;;6.70;99.90;;;;;;4975759;28;20035;-82
2024/03/10 04:43:17;;;;;;;35.97;21.42;;;6.70;99.90;;;;;;4972272;28;20034;-83
2024/03/10 04:45:43;;;;;;;31.85;19.80;;;6.70;99.90;;;;;;4976018;28;20437;-83
2024/03/10 04:48:10;;;;;;;35.85;21.17;;;6.70;99.90;;;;;;4977582;28;20065;-82
2024/03/10 04:50:36;;;;;;;41.25;21.35;;;6.70;99.90;;;;;;4976957;28;20381;-83
2024/03/10 04:53:02;;;;;;;36.80;20.73;;;6.80;99.90;;;;;;4977254;28;20116;-83
2024/03/10 04:55:29;;;;;;;37.90;21.05;;;6.70;99.90;;;;;;4977156;28;20045;-83
2024/03/10 04:57:56;;;;;;;37.60;19.92;;;6.70;99.90;;;;;;4977641;28;20030;-83
2024/03/10 05:00:21;;;;;;;37.42;22.17;;;6.80;99.90;;;;;;4977320;28;20442;-83
2024/03/10 05:02:47;;;;;;;35.00;21.02;;;6.70;99.90;;;;;;4974882;28;20039;-83
2024/03/10 05:05:15;;;;;;;36.30;21.05;;;6.70;99.90;;;;;;4977579;28;20023;-84
2024/03/10 05:07:41;;;;;;;36.03;20.23;;;6.80;99.90;;;;;;4977509;28;20495;-83
2024/03/10 05:10:07;;;;;;;36.72;22.20;;;6.80;99.90;;;;;;4977434;28;20022;-84
2024/03/10 05:12:35;;;;;;;37.30;21.05;;;6.80;99.90;;;;;;4969970;28;20030;-83
2024/03/10 05:15:02;;;;;;;38.15;21.52;;;6.80;99.90;;;;;;4960510;28;20031;-83
2024/03/10 05:17:29;;;;;;;34.00;21.30;;;6.80;99.90;;;;;;4967878;28;20095;-83
2024/03/10 05:19:55;;;;;;;36.17;20.38;;;6.80;99.90;;;;;;4967214;28;20029;-84
2024/03/10 05:22:20;;;;;;;34.97;20.80;;;6.80;99.90;;;;;;4977216;28;20487;-83
2024/03/10 05:24:46;;;;;;;34.83;20.17;;;6.80;99.90;;;;;;4966447;28;20054;-83
2024/03/10 05:27:11;;;;;;;34.95;21.75;;;6.80;99.90;;;;;;4963918;28;20042;-84
2024/03/10 05:29:37;;;;;;;37.63;21.08;;;6.80;99.90;;;;;;4970596;28;20031;-83
2024/03/10 05:32:04;;;;;;;37.08;22.75;;;6.80;99.90;;;;;;4969168;28;20112;-83
2024/03/10 05:34:30;;;;;;;35.00;21.45;;;6.80;99.90;;;;;;4976715;28;20513;-84
2024/03/10 05:36:56;;;;;;;38.33;21.98;;;6.80;99.90;;;;;;4969158;28;20034;-83
2024/03/10 05:39:21;;;;;;;35.78;21.02;;;6.70;99.90;;;;;;4972687;28;20111;-83
2024/03/10 05:41:47;;;;;;;37.95;20.33;;;6.70;99.90;;;;;;4964640;28;20049;-84
2024/03/10 05:44:14;;;;;;;38.15;20.25;;;6.70;99.90;;;;;;4969459;28;20065;-83
2024/03/10 05:46:40;;;;;;;31.83;20.52;;;6.70;99.90;;;;;;4977626;28;20221;-84
2024/03/10 05:49:05;;;;;;;32.75;20.08;;;6.60;99.90;;;;;;4974270;28;20161;-84
2024/03/10 05:51:31;;;;;;;39.20;21.27;;;6.60;99.90;;;;;;4967330;28;20130;-83
2024/03/10 05:53:57;;;;;;;33.20;20.08;;;6.60;99.90;;;;;;4968889;28;20062;-84
2024/03/10 05:56:23;;;;;;;36.72;22.05;;;6.60;99.90;;;;;;4968371;28;20054;-84
2024/03/10 05:58:49;;;;;;;35.03;21.50;;;6.50;99.90;;;;;;4960389;28;20054;-84
2024/03/10 06:01:21;;;;;;;34.63;20.42;;;6.60;99.90;;;;;;4974097;28;20038;-84
2024/03/10 06:03:48;;;;;;;33.15;19.70;;;6.50;99.90;;;;;;4976924;28;20482;-85
2024/03/10 06:06:14;;;;;;;37.35;21.17;;;6.50;99.90;;;;;;4976255;28;20065;-85
2024/03/10 06:08:40;;;;;;;34.85;19.02;;;6.50;99.90;;;;;;4976904;28;20026;-85
2024/03/10 06:11:05;;;;;;;31.90;18.67;;;6.50;99.90;;;;;;4970114;28;20121;-83
2024/03/10 06:13:31;;;;;;;34.03;21.02;;;6.40;99.90;;;;;;4975416;28;20109;-84
2024/03/10 06:15:57;;;;;;;38.70;22.05;;;6.40;99.90;;;;;;4976177;28;20522;-85
2024/03/10 06:18:24;;;;;;;38.03;20.88;;;6.40;99.90;;;;;;4976616;28;20026;-84
2024/03/10 06:26:22;;;;;;;39.08;20.80;;;6.30;99.90;;;;;;4988565;28;20048;-85
2024/03/10 06:28:49;;;;;;;36.72;20.70;;;6.30;99.90;;;;;;4975347;28;20117;-85
2024/03/10 06:31:16;;;;;;;33.13;19.67;;;6.30;99.90;;;;;;4975672;28;20034;-84
2024/03/10 06:33:41;;;;;;;34.70;20.17;;;6.30;99.90;;;;;;4963594;28;20475;-84
2024/03/10 06:36:10;;;;;;;33.38;19.98;;;6.30;99.90;;;;;;4971970;28;20034;-84
2024/03/10 06:38:40;;;;;;;34.30;20.52;;;6.20;99.90;;;;;;4976406;28;20104;-85
2024/03/10 06:41:10;;;;;;;33.20;19.85;;;6.20;99.90;;;;;;4985404;28;20038;-84
2024/03/10 06:43:39;;;;;;;33.97;20.30;;;6.20;99.90;;;;;;4974989;28;20027;-84
2024/03/10 06:46:08;;;;;;;36.97;20.52;;;6.20;99.90;;;;;;4975622;28;20492;-84
2024/03/10 06:48:37;;;;;;;35.20;19.50;;;6.20;99.90;;;;;;4989785;28;20080;-85
2024/03/10 06:51:03;;;;;;;35.90;20.42;;;6.20;99.90;;;;;;4980578;28;20030;-85
2024/03/10 06:53:30;;;;;;;33.58;19.35;;;6.20;99.90;;;;;;4970094;28;20050;-84
2024/03/10 06:55:58;;;;;;;35.40;21.30;;;6.30;99.90;;;;;;4972568;28;20061;-84
2024/03/10 06:58:24;;;;;;;33.10;19.42;;;6.30;99.90;;;;;;4973494;28;20035;-84
2024/03/10 07:00:50;;;;;;;35.42;19.52;;;6.30;99.90;;;;;;4975167;28;20483;-84
2024/03/10 07:03:16;;;;;;;36.88;21.25;;;6.40;99.90;;;;;;4977144;28;20035;-83
2024/03/10 07:05:42;;;;;;;35.65;20.23;;;6.40;99.90;;;;;;4976765;28;20391;-84
2024/03/10 07:08:09;;;;;;;32.95;19.15;;;6.40;99.90;;;;;;4974789;28;20434;-84
2024/03/10 07:10:35;;;;;;;37.13;21.55;;;6.50;99.90;;;;;;4976060;28;20026;-84
2024/03/10 07:13:03;;;;;;;35.90;19.70;;;6.50;99.90;;;;;;4976341;28;20110;-84
2024/03/10 07:15:30;;;;;;;33.70;20.25;;;6.60;99.90;;;;;;4977092;28;20232;-85
2024/03/10 07:17:56;;;;;;;32.40;19.88;;;6.70;99.90;;;;;;4975992;28;20081;-84
2024/03/10 07:20:22;;;;;;;35.33;20.95;;;6.70;99.90;;;;;;4991768;28;20030;-84
2024/03/10 07:22:47;;;;;;;34.45;20.25;;;6.70;99.90;;;;;;4976286;28;20041;-84
2024/03/10 07:25:14;;;;;;;35.85;20.67;;;6.80;99.90;;;;;;4974298;28;20403;-84
2024/03/10 07:27:40;;;;;;;33.50;19.98;;;6.80;99.90;;;;;;4973656;28;20045;-84
2024/03/10 07:30:07;;;;;;;36.90;21.98;;;6.80;99.90;;;;;;4974655;28;20023;-83
2024/03/10 07:32:32;;;;;;;36.88;21.38;;;6.90;99.90;;;;;;4975654;28;20038;-84
2024/03/10 07:34:58;;;;;;;33.97;20.35;;;7.00;99.90;;;;;;4990805;28;20026;-84
2024/03/10 07:37:24;;;;;;;34.22;19.23;;;7.00;99.90;;;;;;4968177;28;20026;-84
2024/03/10 07:39:50;;;;;;;33.83;20.63;;;7.10;99.90;;;;;;4974786;28;20023;-84
2024/03/10 07:42:16;;;;;;;36.33;21.27;;;7.30;99.90;;;;;;4977108;28;20077;-83
2024/03/10 07:44:42;;;;;;;33.95;19.48;;;7.40;99.90;;;;;;4980161;28;20053;-84
2024/03/10 07:47:07;;;;;;;33.40;19.70;;;7.50;99.90;;;;;;4978976;28;20042;-84
2024/03/10 07:49:33;;;;;;;33.33;20.60;;;7.70;99.90;;;;;;4973949;28;20034;-84
2024/03/10 07:51:58;;;;;;;34.28;20.52;;;7.90;99.90;;;;;;4970533;28;20030;-84
2024/03/10 07:54:24;;;;;;;29.58;18.95;;;8.00;99.90;;;;;;4976577;28;20498;-84
2024/03/10 07:56:50;;;;;;;29.88;18.00;;;8.10;99.90;;;;;;4992853;28;20045;-84
2024/03/10 07:59:21;;;;;;;34.95;20.42;;;8.20;99.90;;;;;;4970352;28;20038;-84
2024/03/10 08:01:50;;;;;;;32.15;19.52;;;8.40;99.90;;;;;;4973342;28;20042;-84
2024/03/10 08:04:19;;;;;;;33.85;20.63;;;8.40;99.90;;;;;;4953109;28;20129;-84
2024/03/10 08:06:45;;;;;;;33.22;20.02;;;8.50;99.90;;;;;;4972211;28;20434;-84
2024/03/10 08:09:15;;;;;;;29.98;17.88;;;8.50;99.90;;;;;;4964078;28;20022;-84
2024/03/10 08:11:51;;;;;;;33.10;18.23;;;8.50;99.90;;;;;;4977038;28;20126;-84
2024/03/10 08:14:20;;;;;;;32.58;19.45;;;8.60;99.90;;;;;;4975303;28;20031;-84
2024/03/10 08:16:48;;;;;;;28.40;18.65;;;8.60;99.90;;;;;;4972315;28;20532;-83
2024/03/10 08:19:13;;;;;;;29.15;18.88;;;8.70;99.90;;;;;;4977824;28;20049;-84
2024/03/10 08:21:39;;;;;;;31.38;19.63;;;8.70;99.90;;;;;;4978166;28;20035;-84
2024/03/10 08:24:09;;;;;;;29.77;17.88;;;8.80;99.90;;;;;;4986741;28;20526;-84
2024/03/10 08:26:35;;;;;;;32.67;18.58;;;8.80;99.90;;;;;;4981334;28;20034;-84
2024/03/10 08:29:02;;;;;;;28.23;18.38;;;8.90;99.90;;;;;;4978618;28;20026;-84
2024/03/10 08:31:27;;;;;;;27.90;17.98;;;9.00;99.90;;;;;;4978488;28;20061;-84
2024/03/10 08:33:53;;;;;;;27.75;17.60;;;9.10;99.90;;;;;;4970311;28;20399;-84
2024/03/10 08:36:19;;;;;;;28.90;17.48;;;9.20;99.90;;;;;;4977654;28;20084;-84
2024/03/10 08:38:45;;;;;;;32.30;16.55;;;9.20;99.90;;;;;;4967684;28;20541;-84
2024/03/10 08:41:11;;;;;;;27.13;17.15;;;9.30;99.90;;;;;;4978145;28;20038;-84
2024/03/10 08:43:36;;;;;;;26.92;16.73;;;9.40;99.90;;;;;;4969121;28;20396;-84
2024/03/10 08:46:02;;;;;;;24.20;15.80;;;9.50;99.90;;;;;;4967052;28;20034;-84
2024/03/10 08:48:28;;;;;;;27.98;17.25;;;9.50;99.90;;;;;;4992254;28;20034;-84
2024/03/10 08:50:54;;;;;;;29.23;17.65;;;9.50;99.90;;;;;;4958624;28;20124;-85
2024/03/10 08:53:20;;;;;;;28.15;18.50;;;9.60;99.90;;;;;;4974949;28;20022;-84
2024/03/10 08:55:45;;;;;;;28.48;17.48;;;9.60;99.90;;;;;;4975323;28;20058;-84
2024/03/10 08:58:12;;;;;;;23.83;15.18;;;9.70;99.90;;;;;;4974517;28;20065;-83
2024/03/10 09:00:38;;;;;;;27.48;17.42;;;9.80;99.90;;;;;;4976451;28;20050;-84
2024/03/10 09:03:04;;;;;;;26.65;16.63;;;9.90;99.90;;;;;;4976613;28;20525;-84
2024/03/10 09:05:30;;;;;;;26.02;17.05;;;10.00;99.90;;;;;;4977995;28;20038;-84
2024/03/10 09:07:57;;;;;;;25.15;16.38;;;10.00;99.90;;;;;;4976302;28;20034;-84
2024/03/10 09:10:23;;;;;;;23.60;15.52;;;10.10;99.90;;;;;;4977537;28;20225;-84
2024/03/10 09:12:51;;;;;;;30.02;18.33;;;10.10;99.90;;;;;;4977638;28;20030;-84
2024/03/10 09:15:16;;;;;;;27.92;17.75;;;10.20;99.90;;;;;;4963352;28;20050;-84
2024/03/10 09:17:42;;;;;;;28.02;17.75;;;10.20;99.90;;;;;;4977209;28;20089;-83
2024/03/10 09:20:11;;;;;;;32.30;19.55;;;10.20;99.90;;;;;;4965132;28;20086;-83
2024/03/10 09:22:43;;;;;;;31.80;18.80;;;10.30;99.90;;;;;;4987511;28;20042;-84
2024/03/10 09:25:20;;;;;;;29.08;18.00;;;10.30;99.90;;;;;;4965477;28;20077;-83
2024/03/10 09:27:47;;;;;;;28.52;17.65;;;10.30;99.90;;;;;;4969344;28;20034;-82
2024/03/10 09:30:13;;;;;;;29.08;18.67;;;10.50;99.90;;;;;;4974349;28;20034;-83
2024/03/10 09:32:42;;;;;;;29.27;18.00;;;10.50;99.90;;;;;;4988902;28;20034;-83
2024/03/10 09:35:09;;;;;;;28.42;17.95;;;10.50;99.90;;;;;;4975879;28;20038;-83
2024/03/10 09:37:37;;;;;;;25.83;16.25;;;10.60;99.90;;;;;;4976095;28;20105;-83
2024/03/10 09:40:05;;;;;;;27.20;17.73;;;10.70;99.90;;;;;;4973871;28;20053;-83
2024/03/10 09:42:31;;;;;;;29.20;17.80;;;10.70;99.90;;;;;;4973626;28;20045;-82
2024/03/10 09:44:59;;;;;;;27.02;17.10;;;10.80;99.90;;;;;;4967434;28;20045;-83
2024/03/10 09:47:26;;;;;;;25.02;16.38;;;10.90;99.90;;;;;;4977009;28;20045;-83
2024/03/10 09:49:52;;;;;;;25.65;16.48;;;11.00;99.90;;;;;;4976804;28;20422;-83
2024/03/10 09:52:18;;;;;;;27.35;16.38;;;11.00;99.90;;;;;;4973169;28;20058;-83
2024/03/10 09:54:44;;;;;;;29.73;18.58;;;10.90;99.90;;;;;;4967958;28;20034;-83
2024/03/10 09:57:10;;;;;;;26.42;17.55;;;10.90;99.90;;;;;;4971130;28;20840;-83
2024/03/10 09:59:44;;;;;;;27.23;17.08;;;10.80;99.90;;;;;;4985470;28;20072;-83
2024/03/10 10:02:42;;;;;;;26.67;16.50;;;10.80;99.90;;;;;;4989845;28;20032;-83
2024/03/10 10:05:24;;;;;;;27.65;17.70;;;10.80;99.90;;;;;;4968560;28;20029;-84
2024/03/10 10:07:52;;;;;;;27.65;17.63;;;10.80;99.90;;;;;;4962899;28;20031;-83
2024/03/10 10:10:20;;;;;;;27.98;17.75;;;10.90;99.90;;;;;;4974559;28;20509;-84
2024/03/10 10:12:49;;;;;;;25.02;16.52;;;10.90;99.90;;;;;;4964756;28;20034;-83
2024/03/10 10:15:21;;;;;;;28.10;18.15;;;11.10;99.90;;;;;;4969337;28;20495;-84
2024/03/10 10:17:58;;;;;;;26.80;17.20;;;11.30;99.90;;;;;;4966557;28;20034;-83
2024/03/10 10:20:32;;;;;;;24.95;16.55;;;11.60;99.90;;;;;;4965249;28;20042;-84
2024/03/10 10:23:06;;;;;;;26.52;18.90;;;11.60;99.90;;;;;;4974175;28;20038;-83
2024/03/10 10:25:35;;;;;;;26.42;16.77;;;11.80;99.90;;;;;;4974776;28;20133;-83
2024/03/10 10:28:02;;;;;;;26.30;17.90;;;11.80;99.90;;;;;;4966248;28;20031;-84
2024/03/10 10:30:29;;;;;;;27.23;17.85;;;11.70;99.90;;;;;;4957353;28;20431;-84
2024/03/10 10:33:05;;;;;;;26.75;17.33;;;11.60;99.90;;;;;;4969606;28;20026;-83
2024/03/10 10:35:33;;;;;;;28.73;18.10;;;11.60;99.90;;;;;;4969633;28;20085;-83
2024/03/10 10:38:03;;;;;;;27.00;17.70;;;11.70;99.90;;;;;;4967813;28;20077;-84
2024/03/10 10:40:29;;;;;;;27.05;18.17;;;11.80;99.90;;;;;;4970066;28;20109;-84
2024/03/10 10:42:55;;;;;;;25.15;17.45;;;11.90;99.90;;;;;;4986044;28;20137;-83
2024/03/10 10:45:22;;;;;;;26.08;17.38;;;12.10;99.90;;;;;;4976228;28;20026;-83
2024/03/10 10:47:50;;;;;;;25.98;17.58;;;12.20;99.90;;;;;;4977866;28;20027;-83
2024/03/10 10:50:20;;;;;;;27.45;18.02;;;12.40;99.90;;;;;;4975720;28;20053;-83
2024/03/10 10:52:46;;;;;;;26.40;17.65;;;12.60;99.90;;;;;;4973449;28;20035;-82
2024/03/10 10:55:15;;;;;;;30.02;18.80;;;12.70;99.90;;;;;;4972683;28;20018;-82
2024/03/10 10:57:44;;;;;;;26.02;17.70;;;12.60;99.90;;;;;;4974459;28;20030;-83
2024/03/10 11:00:29;;;;;;;26.15;16.00;;;12.70;99.90;;;;;;4957199;28;20045;-83
2024/03/10 11:03:15;;;;;;;24.40;16.98;;;12.80;99.90;;;;;;4960582;28;20042;-83
2024/03/10 11:05:45;;;;;;;24.42;16.77;;;12.80;99.90;;;;;;4973805;28;20046;-83
2024/03/10 11:08:13;;;;;;;22.55;15.20;;;12.90;99.90;;;;;;4975300;28;20452;-82
2024/03/10 11:10:45;;;;;;;26.98;18.40;;;12.90;99.90;;;;;;4975038;28;20053;-83
2024/03/10 11:13:11;;;;;;;29.00;19.67;;;12.90;99.90;;;;;;4984605;28;20019;-83
2024/03/10 11:15:37;;;;;;;28.10;18.58;;;12.90;99.90;;;;;;4986912;28;20092;-93
2024/03/10 11:18:25;;;;;;;25.67;16.98;;;12.90;99.90;;;;;;4964317;28;20027;-93
2024/03/10 11:20:51;;;;;;;26.67;18.48;;;13.00;99.90;;;;;;4975057;28;20094;-92
2024/03/10 11:23:36;;;;;;;28.80;17.88;;;13.00;99.90;;;;;;4969527;28;20027;-92
2024/03/10 11:26:28;;;;;;;27.83;17.95;;;12.90;99.90;;;;;;4964620;28;20030;-93
2024/03/10 11:28:56;;;;;;;29.17;19.17;;;12.90;99.90;;;;;;4971798;28;20034;-93
2024/03/10 11:31:22;;;;;;;26.20;17.83;;;13.10;99.90;;;;;;4966722;28;20030;-92
2024/03/10 11:33:49;;;;;;;26.42;17.95;;;13.10;99.90;;;;;;4980352;28;20029;-93
2024/03/10 11:36:15;;;;;;;26.60;18.55;;;13.20;99.90;;;;;;4975732;28;20113;-93
2024/03/10 11:38:44;;;;;;;23.90;17.63;;;13.30;99.90;;;;;;4976051;28;20027;-92
2024/03/10 11:41:13;;;;;;;27.58;19.15;;;13.40;99.90;;;;;;4975194;28;20501;-92
2024/03/10 11:43:41;;;;;;;28.08;17.65;;;13.40;99.90;;;;;;4976095;28;20073;-92
2024/03/10 11:46:33;;;;;;;25.55;17.73;;;13.40;99.90;;;;;;4969373;28;20023;-92
2024/03/10 11:49:01;;;;;;;28.40;18.67;;;13.40;99.90;;;;;;4968215;28;20054;-92
2024/03/10 11:51:27;;;;;;;27.52;19.35;;;13.40;99.90;;;;;;4972693;28;20046;-92
2024/03/10 11:53:53;;;;;;;29.50;19.42;;;13.50;99.90;;;;;;4972052;28;20034;-92
2024/03/10 11:56:19;;;;;;;27.52;18.30;;;13.60;99.90;;;;;;4976198;28;20113;-92
2024/03/10 11:58:46;;;;;;;28.75;19.40;;;13.50;99.90;;;;;;4972676;28;20186;-92
2024/03/10 12:01:12;;;;;;;26.90;20.10;;;13.60;99.90;;;;;;4964332;28;20042;-91
2024/03/10 12:03:39;;;;;;;25.33;18.13;;;13.60;99.90;;;;;;4968754;28;20135;-92
2024/03/10 12:06:06;;;;;;;26.15;17.95;;;13.70;99.90;;;;;;4972317;28;20023;-91
2024/03/10 12:08:37;;;;;;;24.67;17.05;;;13.60;99.90;;;;;;4973038;28;20570;-91
2024/03/10 12:11:03;;;;;;;31.83;19.70;;;13.70;99.90;;;;;;4965204;28;20023;-91
2024/03/10 12:13:29;;;;;;;28.00;19.33;;;13.70;99.90;;;;;;4969426;28;20031;-92
2024/03/10 12:16:06;;;;;;;25.60;17.55;;;13.60;99.90;;;;;;4970410;28;20071;-92
2024/03/10 12:18:35;;;;;;;24.92;17.25;;;13.60;99.90;;;;;;4973287;28;20071;-93
2024/03/10 12:21:03;;;;;;;25.67;17.80;;;13.70;99.90;;;;;;4972504;28;20027;-91
2024/03/10 12:23:36;;;;;;;24.73;17.63;;;13.60;99.90;;;;;;4971558;28;20029;-91
2024/03/10 12:26:10;;;;;;;26.10;18.08;;;13.60;99.90;;;;;;4964712;28;20083;-92
2024/03/10 12:28:40;;;;;;;26.92;16.70;;;13.70;99.90;;;;;;4954806;28;20043;-91
2024/03/10 12:31:14;;;;;;;24.13;16.92;;;13.90;99.90;;;;;;4976071;28;20034;-91
2024/03/10 12:33:41;;;;;;;27.75;18.13;;;14.00;99.90;;;;;;4976152;28;20027;-92
2024/03/10 12:36:09;;;;;;;24.83;18.15;;;14.00;99.90;;;;;;4975918;28;20082;-92
2024/03/10 12:38:36;;;;;;;25.73;16.50;;;13.90;99.90;;;;;;4971786;28;20119;-92
2024/03/10 12:41:02;;;;;;;26.83;18.67;;;13.90;99.90;;;;;;4975598;28;20078;-91
2024/03/10 12:43:28;;;;;;;23.15;16.23;;;13.90;99.90;;;;;;4974508;28;20034;-91
2024/03/10 12:45:55;;;;;;;24.35;18.13;;;13.90;99.90;;;;;;4962508;28;20070;-92
2024/03/10 12:48:20;;;;;;;23.90;17.30;;;14.00;99.90;;;;;;4972286;28;20050;-92
2024/03/10 12:50:46;;;;;;;26.17;17.83;;;14.10;99.90;;;;;;4975551;28;20595;-91
2024/03/10 12:53:11;;;;;;;24.85;17.98;;;14.10;99.90;;;;;;4973551;28;20023;-92
2024/03/10 12:55:37;;;;;;;25.38;17.98;;;14.20;99.90;;;;;;4972393;28;20079;-92
2024/03/10 12:58:04;;;;;;;25.90;17.70;;;14.20;99.90;;;;;;4973811;28;20133;-92